Time;durP1;ratioP1;P1;durP2;ratioP2;P2;SDS_P1;SDS_P2;PMS_P1;PMS_P2;Temp;Humidity;BMP_temperature;BMP_pressure;BME280_temperature;BME280_humidity;BME280_pressure;Samples;Min_cycle;Max_cycle;Signal;HPM_P1;HPM_P2
2023/01/01 00:02:29;;;;;;;38.55;33.10;;;10.90;89.60;;;;;;10943202;32;20023;-73
2023/01/01 00:08:31;;;;;;;24.52;21.75;;;10.90;89.60;;;;;;10942563;32;20409;-74
2023/01/01 00:14:33;;;;;;;27.92;22.62;;;10.90;89.50;;;;;;10942889;32;20059;-73
2023/01/01 00:20:35;;;;;;;27.67;22.62;;;10.80;89.50;;;;;;10942575;32;20302;-74
2023/01/01 00:26:37;;;;;;;22.58;20.27;;;10.80;89.50;;;;;;10909974;27;20364;-73
2023/01/01 00:32:39;;;;;;;23.70;18.20;;;10.80;89.60;;;;;;10916230;32;20416;-73
2023/01/01 00:38:43;;;;;;;24.08;18.98;;;10.80;89.50;;;;;;10942068;32;20435;-73
2023/01/01 00:44:44;;;;;;;23.85;19.27;;;10.80;89.40;;;;;;10941917;32;20337;-73
2023/01/01 00:50:47;;;;;;;26.30;21.15;;;10.80;89.50;;;;;;10941861;32;20019;-73
2023/01/01 00:56:56;;;;;;;24.63;18.87;;;10.70;89.50;;;;;;10941698;32;20045;-74
2023/01/01 01:02:59;;;;;;;22.52;18.60;;;10.80;89.50;;;;;;10941426;32;20035;-74
2023/01/01 01:09:01;;;;;;;25.30;21.75;;;10.80;89.40;;;;;;10928006;32;20027;-74
2023/01/01 01:15:04;;;;;;;26.55;22.37;;;10.80;89.50;;;;;;10946389;32;20043;-73
2023/01/01 01:21:17;;;;;;;24.60;20.90;;;10.90;89.50;;;;;;10949140;32;20306;-74
2023/01/01 01:27:19;;;;;;;30.42;24.27;;;10.80;89.50;;;;;;10944750;32;20046;-74
2023/01/01 01:33:21;;;;;;;27.80;20.95;;;10.80;89.50;;;;;;10948628;32;20049;-74
2023/01/01 01:39:23;;;;;;;28.65;22.37;;;10.90;89.60;;;;;;10948398;32;20039;-74
2023/01/01 01:45:25;;;;;;;28.95;23.25;;;10.80;89.50;;;;;;10948133;32;20019;-74
2023/01/01 01:51:34;;;;;;;30.45;22.45;;;10.80;89.50;;;;;;10934354;32;20042;-74
2023/01/01 01:57:38;;;;;;;36.70;28.85;;;10.80;89.50;;;;;;10947761;32;20023;-74
2023/01/01 02:04:00;;;;;;;25.27;20.05;;;10.70;89.60;;;;;;10933984;32;20353;-73
2023/01/01 02:10:03;;;;;;;28.77;22.33;;;10.70;89.50;;;;;;10947503;32;20341;-73
2023/01/01 02:16:08;;;;;;;51.00;35.47;;;10.70;89.50;;;;;;10947146;32;20034;-73
2023/01/01 02:22:14;;;;;;;33.70;27.48;;;10.70;89.60;;;;;;10942908;32;20043;-73
2023/01/01 02:28:34;;;;;;;31.33;23.50;;;10.70;89.50;;;;;;10933021;32;20054;-73
2023/01/01 02:34:45;;;;;;;43.28;26.45;;;10.70;89.50;;;;;;10942606;32;20050;-73
2023/01/01 02:40:50;;;;;;;38.25;28.92;;;10.70;89.40;;;;;;10946379;32;20435;-73
2023/01/01 02:46:52;;;;;;;32.90;24.37;;;10.70;89.40;;;;;;10945194;32;20026;-73
2023/01/01 02:53:32;;;;;;;36.40;27.37;;;10.60;89.40;;;;;;10932448;32;20391;-74
2023/01/01 03:06:47;;;;;;;29.23;20.77;;;10.50;89.40;;;;;;10866792;32;20050;-73
2023/01/01 03:13:10;;;;;;;44.20;33.17;;;10.50;89.40;;;;;;10866829;32;20075;-73
2023/01/01 03:19:25;;;;;;;40.28;28.17;;;10.50;89.40;;;;;;10852872;32;20036;-73
2023/01/01 03:25:33;;;;;;;41.97;29.83;;;10.50;89.40;;;;;;10865942;32;20040;-74
2023/01/01 03:31:42;;;;;;;39.83;30.45;;;10.50;89.40;;;;;;10881764;32;20027;-73
2023/01/01 03:37:53;;;;;;;39.17;25.98;;;10.50;89.40;;;;;;10944244;32;20022;-73
2023/01/01 03:44:35;;;;;;;45.42;33.58;;;10.50;89.30;;;;;;10944138;32;20394;-73
2023/01/01 03:50:53;;;;;;;53.87;38.75;;;10.50;89.20;;;;;;10943754;32;20035;-73
2023/01/01 03:57:08;;;;;;;45.45;34.20;;;10.50;89.20;;;;;;10943795;32;20018;-73
2023/01/01 04:03:40;;;;;;;76.55;54.80;;;10.50;89.20;;;;;;10929620;32;20061;-74
2023/01/01 04:09:48;;;;;;;50.83;34.05;;;10.50;89.30;;;;;;10943159;32;20019;-73
2023/01/01 04:15:51;;;;;;;49.13;33.07;;;10.60;89.30;;;;;;10942573;32;20058;-73
2023/01/01 04:21:53;;;;;;;37.58;27.87;;;10.50;89.20;;;;;;10942705;32;20023;-74
2023/01/01 04:27:57;;;;;;;46.72;35.67;;;10.50;89.30;;;;;;10941177;32;20007;-73
2023/01/01 04:33:59;;;;;;;61.92;45.88;;;10.60;89.40;;;;;;10927870;32;20014;-74
2023/01/01 04:40:01;;;;;;;49.08;36.75;;;10.60;89.30;;;;;;10942288;32;20041;-73
2023/01/01 04:46:04;;;;;;;42.50;31.92;;;10.70;89.40;;;;;;10941420;32;20076;-73
2023/01/01 04:52:06;;;;;;;23.35;18.48;;;10.70;89.30;;;;;;10941995;32;20020;-74
2023/01/01 04:58:08;;;;;;;41.15;32.20;;;10.60;89.30;;;;;;10941780;32;20023;-73
2023/01/01 05:04:13;;;;;;;37.00;29.00;;;10.60;89.30;;;;;;10937692;32;20038;-73
2023/01/01 05:10:15;;;;;;;39.00;29.42;;;10.60;89.40;;;;;;10927717;32;20424;-73
2023/01/01 05:16:19;;;;;;;38.97;29.23;;;10.60;89.40;;;;;;10941401;32;20042;-73
2023/01/01 05:22:22;;;;;;;37.80;27.50;;;10.70;89.40;;;;;;10941175;32;20027;-74
2023/01/01 05:28:24;;;;;;;34.10;27.05;;;10.60;89.30;;;;;;10940729;32;20050;-74
2023/01/01 05:34:26;;;;;;;32.15;22.20;;;10.50;89.30;;;;;;10941171;32;20341;-74
2023/01/01 05:40:28;;;;;;;38.47;31.52;;;10.50;89.30;;;;;;10927424;32;20035;-73
2023/01/01 05:46:31;;;;;;;32.67;25.58;;;10.50;89.30;;;;;;10940957;32;20341;-74
2023/01/01 05:52:33;;;;;;;31.40;23.17;;;10.50;89.40;;;;;;10940690;32;20037;-74
2023/01/01 05:58:35;;;;;;;51.30;37.80;;;10.50;89.40;;;;;;10945322;32;20027;-73
2023/01/01 06:04:37;;;;;;;37.33;28.67;;;10.60;89.40;;;;;;10947636;32;20327;-74
2023/01/01 06:10:39;;;;;;;45.45;28.25;;;10.60;89.40;;;;;;10947484;32;20022;-74
2023/01/01 06:16:41;;;;;;;30.67;23.85;;;10.60;89.40;;;;;;10943189;32;20019;-74
2023/01/01 06:22:43;;;;;;;32.33;24.55;;;10.60;89.30;;;;;;10933430;32;20031;-74
2023/01/01 06:28:46;;;;;;;31.05;24.60;;;10.60;89.30;;;;;;10933125;32;20341;-74
2023/01/01 06:34:48;;;;;;;32.20;20.98;;;10.60;89.40;;;;;;10946694;32;20042;-73
2023/01/01 06:40:58;;;;;;;31.80;24.30;;;10.50;89.40;;;;;;10945435;32;20019;-74
2023/01/01 06:47:00;;;;;;;39.35;33.10;;;10.50;89.40;;;;;;10946172;32;20042;-73
2023/01/01 06:53:07;;;;;;;32.13;23.67;;;10.50;89.50;;;;;;10932507;32;20061;-73
2023/01/01 06:59:09;;;;;;;53.83;39.28;;;10.50;89.50;;;;;;10945897;32;20022;-73
2023/01/01 07:05:11;;;;;;;44.25;32.10;;;10.50;89.40;;;;;;10941582;32;20085;-73
2023/01/01 07:11:14;;;;;;;47.40;37.85;;;10.50;89.50;;;;;;10931432;32;20354;-73
2023/01/01 07:17:16;;;;;;;40.15;30.27;;;10.50;89.50;;;;;;10944501;32;20015;-73
2023/01/01 07:23:18;;;;;;;37.78;28.77;;;10.50;89.50;;;;;;10931308;32;20053;-74
2023/01/01 07:29:20;;;;;;;50.58;38.88;;;10.50;89.60;;;;;;10944953;32;20294;-73
2023/01/01 07:35:22;;;;;;;43.45;31.23;;;10.50;89.50;;;;;;10931157;32;20027;-73
2023/01/01 07:41:24;;;;;;;40.50;29.35;;;10.60;89.60;;;;;;10930913;32;20019;-73
2023/01/01 07:47:27;;;;;;;51.40;38.63;;;10.50;89.50;;;;;;10930494;32;20454;-73
2023/01/01 07:53:29;;;;;;;36.40;29.12;;;10.60;89.60;;;;;;10942513;32;20038;-73
2023/01/01 07:59:31;;;;;;;43.85;33.38;;;10.60;89.50;;;;;;10943592;32;20023;-73
2023/01/01 08:05:34;;;;;;;37.33;30.75;;;10.60;89.60;;;;;;10929982;32;20049;-73
2023/01/01 08:11:36;;;;;;;42.88;33.15;;;10.60;89.60;;;;;;10943051;32;20409;-73
2023/01/01 08:17:39;;;;;;;39.97;29.27;;;10.70;89.60;;;;;;10942912;32;20011;-73
2023/01/01 08:23:41;;;;;;;34.83;27.55;;;10.70;89.60;;;;;;10931154;27;20057;-73
2023/01/01 08:29:44;;;;;;;36.35;27.40;;;10.70;89.50;;;;;;10905090;32;20016;-73
2023/01/01 08:35:46;;;;;;;34.50;28.10;;;10.80;89.60;;;;;;10942364;32;20042;-73
2023/01/01 08:41:48;;;;;;;28.20;24.37;;;10.90;89.60;;;;;;10942344;32;20023;-73
2023/01/01 08:47:50;;;;;;;26.10;20.37;;;11.00;89.60;;;;;;10942228;32;20406;-73
2023/01/01 08:53:52;;;;;;;45.95;26.05;;;11.10;89.40;;;;;;10928306;32;20061;-73
2023/01/01 08:59:54;;;;;;;35.33;24.02;;;11.10;89.30;;;;;;10941840;32;20443;-73
2023/01/01 09:05:57;;;;;;;32.67;25.05;;;11.10;89.30;;;;;;10928332;32;20049;-73
2023/01/01 09:12:04;;;;;;;25.30;21.08;;;11.10;89.30;;;;;;10939131;32;20076;-73
2023/01/01 09:18:06;;;;;;;33.55;25.37;;;11.20;89.30;;;;;;10941467;32;20405;-74
2023/01/01 09:24:09;;;;;;;34.10;26.60;;;11.20;89.20;;;;;;10939358;32;20045;-74
2023/01/01 09:30:11;;;;;;;32.72;25.70;;;11.20;89.20;;;;;;10942443;32;20022;-73
2023/01/01 09:36:19;;;;;;;33.25;23.98;;;11.20;89.20;;;;;;10948868;32;20037;-73
2023/01/01 09:42:47;;;;;;;50.30;38.38;;;11.40;89.10;;;;;;10935112;32;20039;-73
2023/01/01 09:48:57;;;;;;;43.42;30.30;;;11.40;89.00;;;;;;10940575;32;20050;-73
2023/01/01 09:55:10;;;;;;;44.83;34.42;;;11.50;88.90;;;;;;10930432;32;20046;-73
2023/01/01 10:01:18;;;;;;;39.78;27.95;;;11.50;88.80;;;;;;10949744;32;20045;-73
2023/01/01 10:08:14;;;;;;;38.08;29.12;;;11.50;88.80;;;;;;10947653;32;20023;-73
2023/01/01 10:15:02;;;;;;;39.20;30.15;;;11.50;88.80;;;;;;10866506;32;20353;-73
2023/01/01 10:21:18;;;;;;;38.83;31.02;;;11.50;88.90;;;;;;10746105;33;20028;-73
2023/01/01 10:27:33;;;;;;;38.55;32.40;;;11.60;88.90;;;;;;10756875;33;20047;-73
2023/01/01 10:33:35;;;;;;;40.72;30.17;;;11.70;88.80;;;;;;10754024;33;20453;-73
2023/01/01 10:39:38;;;;;;;45.55;32.63;;;11.70;88.70;;;;;;10753969;33;20177;-73
2023/01/01 10:45:49;;;;;;;39.80;29.40;;;11.80;88.60;;;;;;10757672;33;20395;-73
2023/01/01 10:51:53;;;;;;;34.22;28.00;;;11.80;88.50;;;;;;10901829;32;20019;-73
2023/01/01 10:57:55;;;;;;;45.75;32.33;;;11.90;88.40;;;;;;10932427;32;20050;-73
2023/01/01 11:04:02;;;;;;;44.78;31.45;;;11.90;88.40;;;;;;10954079;32;20336;-73
2023/01/01 11:10:06;;;;;;;41.72;33.97;;;12.00;88.40;;;;;;10945685;32;20517;-73
2023/01/01 11:16:11;;;;;;;36.78;26.00;;;12.00;88.40;;;;;;10945084;32;20305;-73
2023/01/01 11:22:53;;;;;;;40.92;28.90;;;12.00;88.40;;;;;;10944964;32;20046;-73
2023/01/01 11:29:16;;;;;;;42.97;28.90;;;12.10;88.30;;;;;;10931108;32;20065;-73
2023/01/01 11:35:23;;;;;;;38.60;30.10;;;12.10;88.30;;;;;;10930158;32;20018;-73
2023/01/01 11:41:25;;;;;;;44.47;32.67;;;12.20;88.40;;;;;;10941602;32;20100;-73
2023/01/01 11:47:37;;;;;;;45.33;35.00;;;12.20;88.20;;;;;;10944041;32;20038;-73
2023/01/01 11:53:40;;;;;;;42.92;31.05;;;12.40;88.10;;;;;;10943125;32;20035;-73
2023/01/01 11:59:59;;;;;;;41.22;30.83;;;12.50;87.90;;;;;;10943558;32;20320;-73
2023/01/01 12:06:07;;;;;;;58.03;44.47;;;12.70;87.60;;;;;;10943528;32;20430;-73
2023/01/01 12:12:30;;;;;;;40.57;30.23;;;12.70;87.40;;;;;;10943392;32;20015;-73
2023/01/01 12:18:41;;;;;;;41.78;33.38;;;12.70;87.40;;;;;;10939612;32;20377;-73
2023/01/01 12:24:44;;;;;;;35.60;25.77;;;12.70;87.30;;;;;;10941743;32;20251;-73
2023/01/01 12:31:09;;;;;;;41.78;28.75;;;12.80;87.40;;;;;;10942249;32;20069;-73
2023/01/01 12:37:28;;;;;;;40.53;29.77;;;12.70;87.20;;;;;;10928839;32;20012;-73
2023/01/01 12:43:44;;;;;;;32.78;26.10;;;12.70;87.30;;;;;;10942107;32;20065;-73
2023/01/01 12:50:03;;;;;;;36.65;24.77;;;12.70;87.30;;;;;;10942156;32;20033;-73
2023/01/01 12:56:31;;;;;;;39.28;26.37;;;12.70;87.40;;;;;;10941701;32;20140;-73
2023/01/01 13:03:03;;;;;;;33.50;24.50;;;12.70;87.40;;;;;;10941981;32;20045;-73
2023/01/01 13:09:28;;;;;;;36.88;26.90;;;12.70;87.30;;;;;;10934723;32;20109;-73
2023/01/01 13:15:40;;;;;;;40.10;28.58;;;12.80;87.30;;;;;;10927874;32;20027;-73
2023/01/01 13:21:42;;;;;;;34.83;29.00;;;12.90;87.00;;;;;;10941399;32;20389;-73
2023/01/01 13:27:58;;;;;;;40.30;27.00;;;13.00;86.70;;;;;;10941384;32;20341;-73
2023/01/01 13:34:36;;;;;;;46.60;33.80;;;13.00;86.30;;;;;;10941288;32;20019;-73
2023/01/01 13:40:50;;;;;;;43.13;36.08;;;13.00;86.00;;;;;;10923172;32;20050;-73
2023/01/01 13:47:18;;;;;;;37.30;26.98;;;13.00;86.10;;;;;;10939969;32;20018;-73
2023/01/01 13:53:29;;;;;;;46.45;33.33;;;12.90;86.40;;;;;;10940935;32;20034;-73
2023/01/01 13:59:54;;;;;;;57.25;44.60;;;12.90;86.40;;;;;;10940877;32;20022;-73
2023/01/01 14:06:12;;;;;;;33.55;24.77;;;12.80;86.50;;;;;;10941296;32;20051;-73
2023/01/01 14:12:16;;;;;;;43.78;30.27;;;12.80;86.50;;;;;;10940592;32;20041;-72
2023/01/01 14:18:19;;;;;;;35.47;27.25;;;12.70;86.50;;;;;;10943345;32;20042;-73
2023/01/01 14:24:23;;;;;;;45.28;31.42;;;12.70;86.70;;;;;;10947108;32;20019;-73
2023/01/01 14:30:28;;;;;;;35.47;24.98;;;12.70;86.80;;;;;;10920543;32;20427;-73
2023/01/01 14:36:31;;;;;;;45.15;32.47;;;12.70;86.90;;;;;;10942235;32;20015;-73
2023/01/01 14:42:58;;;;;;;49.38;34.63;;;12.60;86.80;;;;;;10946520;32;20019;-73
2023/01/01 14:49:26;;;;;;;34.80;26.02;;;12.70;87.00;;;;;;10946352;32;20041;-72
2023/01/01 14:55:39;;;;;;;42.95;27.73;;;12.60;87.00;;;;;;10946735;32;20019;-72
2023/01/01 15:02:01;;;;;;;36.25;24.75;;;12.50;87.10;;;;;;10944026;32;20070;-73
2023/01/01 15:08:16;;;;;;;32.88;22.65;;;12.50;87.20;;;;;;10945712;32;20019;-72
2023/01/01 15:14:34;;;;;;;35.67;21.17;;;12.50;87.20;;;;;;10945426;32;20037;-72
2023/01/01 15:20:36;;;;;;;36.17;21.80;;;12.40;87.30;;;;;;10945125;32;20077;-72
2023/01/01 15:27:02;;;;;;;30.62;21.55;;;12.30;87.40;;;;;;10502885;32;12128845;-72
2023/01/01 15:33:12;;;;;;;24.77;17.75;;;12.30;87.40;;;;;;10878377;32;20395;-73
2023/01/01 15:39:14;;;;;;;28.02;19.58;;;12.30;87.50;;;;;;10878821;32;20166;-72
2023/01/01 15:45:27;;;;;;;35.28;22.65;;;12.20;87.40;;;;;;10864899;32;20027;-72
2023/01/01 15:51:29;;;;;;;32.75;22.55;;;12.20;87.50;;;;;;10923983;32;20423;-73
2023/01/01 15:57:31;;;;;;;29.02;19.45;;;12.20;87.60;;;;;;10941800;32;20049;-73
2023/01/01 16:03:35;;;;;;;26.23;20.25;;;12.10;87.70;;;;;;10929538;32;20061;-73
2023/01/01 16:09:37;;;;;;;28.83;19.95;;;12.10;87.70;;;;;;10943517;32;20081;-73
2023/01/01 16:15:54;;;;;;;24.10;17.58;;;12.10;87.80;;;;;;10941449;32;20057;-73
2023/01/01 16:21:56;;;;;;;22.02;14.90;;;12.10;87.70;;;;;;10943531;27;20058;-73
2023/01/01 16:27:58;;;;;;;27.20;18.67;;;12.10;87.80;;;;;;10942672;32;20389;-72
2023/01/01 16:34:01;;;;;;;26.50;18.98;;;12.10;87.80;;;;;;10942628;32;20015;-72
2023/01/01 16:40:05;;;;;;;36.78;25.10;;;12.00;87.80;;;;;;10928891;32;20022;-72
2023/01/01 16:46:07;;;;;;;19.50;15.57;;;12.00;87.80;;;;;;10928844;32;20019;-72
2023/01/01 16:52:09;;;;;;;25.17;19.58;;;12.00;87.90;;;;;;10928688;32;20034;-74
2023/01/01 16:58:11;;;;;;;31.62;23.75;;;11.90;87.90;;;;;;10942033;32;20046;-74
2023/01/01 17:04:13;;;;;;;27.65;19.42;;;11.90;87.90;;;;;;10928279;32;20424;-74
2023/01/01 17:10:16;;;;;;;32.90;17.98;;;11.90;88.00;;;;;;10941821;32;20047;-74
2023/01/01 17:16:18;;;;;;;20.83;13.30;;;11.90;88.10;;;;;;10941711;32;20034;-74
2023/01/01 17:22:20;;;;;;;21.60;15.75;;;11.80;88.10;;;;;;10927887;32;20057;-74
2023/01/01 17:28:22;;;;;;;21.85;14.25;;;11.80;88.10;;;;;;10941440;32;20321;-74
2023/01/01 17:34:24;;;;;;;26.77;19.35;;;11.80;88.10;;;;;;10941391;32;20046;-74
2023/01/01 17:40:26;;;;;;;31.30;15.75;;;11.80;88.10;;;;;;10941156;32;20474;-74
2023/01/01 17:46:31;;;;;;;19.52;14.93;;;11.80;88.10;;;;;;10941179;32;20065;-74
2023/01/01 17:52:33;;;;;;;34.33;21.35;;;11.80;88.10;;;;;;10943649;32;20037;-74
2023/01/01 17:58:35;;;;;;;30.23;19.33;;;11.80;88.00;;;;;;10948131;32;20031;-74
2023/01/01 18:04:38;;;;;;;22.17;16.37;;;11.80;88.00;;;;;;10947843;32;20046;-74
2023/01/01 18:10:40;;;;;;;31.55;22.52;;;11.80;88.10;;;;;;10947684;32;20142;-74
2023/01/01 18:16:44;;;;;;;26.02;21.48;;;11.80;88.10;;;;;;10934033;32;20045;-74
2023/01/01 18:22:46;;;;;;;33.45;25.25;;;11.80;88.10;;;;;;10947267;32;20318;-74
2023/01/01 18:29:01;;;;;;;39.50;25.67;;;11.80;88.10;;;;;;10942953;32;20015;-74
2023/01/01 18:35:05;;;;;;;30.55;20.60;;;11.80;88.10;;;;;;10946595;32;20130;-74
2023/01/01 18:41:59;;;;;;;31.42;25.15;;;11.80;88.20;;;;;;10981038;32;20022;-73
2023/01/01 18:48:10;;;;;;;29.20;18.40;;;11.80;88.20;;;;;;10867939;32;20027;-73
2023/01/01 18:54:12;;;;;;;31.55;18.08;;;11.80;88.20;;;;;;10853047;32;20058;-73
2023/01/01 19:00:21;;;;;;;23.00;17.75;;;11.80;88.20;;;;;;10867403;32;20023;-73
2023/01/01 19:06:26;;;;;;;26.85;18.12;;;11.70;88.10;;;;;;10866050;32;20027;-73
2023/01/01 19:12:28;;;;;;;27.08;19.67;;;11.70;88.20;;;;;;10866663;32;20046;-73
2023/01/01 19:18:32;;;;;;;28.75;20.30;;;11.70;88.30;;;;;;10861219;32;20031;-73
2023/01/01 19:24:35;;;;;;;33.08;20.48;;;11.70;88.30;;;;;;10907350;32;20049;-73
2023/01/01 19:30:37;;;;;;;28.23;18.83;;;11.70;88.40;;;;;;10907332;32;20326;-74
2023/01/01 19:36:40;;;;;;;29.27;21.10;;;11.70;88.30;;;;;;10907155;32;20015;-74
2023/01/01 19:42:42;;;;;;;27.20;20.80;;;11.60;88.30;;;;;;10893445;32;20041;-74
2023/01/01 19:48:44;;;;;;;21.98;14.93;;;11.60;88.30;;;;;;10892560;32;20357;-74
2023/01/01 19:54:47;;;;;;;35.08;20.15;;;11.60;88.30;;;;;;10906162;32;20043;-74
2023/01/01 20:00:50;;;;;;;22.13;14.60;;;11.50;88.30;;;;;;10892845;32;20011;-74
2023/01/01 20:06:52;;;;;;;24.40;14.77;;;11.50;88.30;;;;;;10905990;32;20011;-73
2023/01/01 20:12:58;;;;;;;20.17;15.30;;;11.50;88.30;;;;;;10901780;32;20045;-73
2023/01/01 20:19:00;;;;;;;25.83;15.90;;;11.50;88.30;;;;;;10903972;32;20027;-73
2023/01/01 20:25:03;;;;;;;28.73;18.87;;;11.50;88.30;;;;;;10891401;32;20026;-73
2023/01/01 20:31:05;;;;;;;23.10;14.35;;;11.50;88.30;;;;;;10917856;32;20085;-73
2023/01/01 20:43:28;;;;;;;30.77;19.17;;;11.50;88.30;;;;;;10942525;32;20031;-73
2023/01/01 20:49:30;;;;;;;22.98;16.12;;;11.50;88.40;;;;;;10942310;32;20018;-73
2023/01/01 20:55:34;;;;;;;24.37;16.40;;;11.50;88.30;;;;;;10942136;32;20405;-73
2023/01/01 21:01:36;;;;;;;22.42;13.95;;;11.40;88.30;;;;;;10941766;32;20031;-73
2023/01/01 21:07:38;;;;;;;32.08;22.65;;;11.50;88.30;;;;;;10940358;32;20337;-73
2023/01/01 21:13:42;;;;;;;30.95;20.92;;;11.50;88.30;;;;;;10928033;32;20031;-73
2023/01/01 21:19:44;;;;;;;28.40;20.02;;;11.50;88.30;;;;;;10941702;32;20049;-73
2023/01/01 21:25:48;;;;;;;37.92;21.10;;;11.50;88.40;;;;;;10941921;32;20077;-73
2023/01/01 21:31:56;;;;;;;25.75;17.75;;;11.50;88.40;;;;;;10949106;32;20019;-73
2023/01/01 21:37:59;;;;;;;24.60;18.65;;;11.50;88.40;;;;;;10948889;32;20026;-73
2023/01/01 21:44:02;;;;;;;35.08;27.48;;;11.50;88.40;;;;;;10948758;32;20011;-74
2023/01/01 21:50:23;;;;;;;38.50;25.42;;;11.50;88.40;;;;;;10934756;32;20023;-73
2023/01/01 21:56:32;;;;;;;25.20;18.85;;;11.40;88.50;;;;;;10947003;32;20052;-73
2023/01/01 22:02:37;;;;;;;26.92;19.08;;;11.40;88.60;;;;;;10947903;32;20018;-73
2023/01/01 22:08:42;;;;;;;35.15;18.67;;;11.40;88.50;;;;;;10947226;32;20064;-74
2023/01/01 22:14:47;;;;;;;33.78;23.83;;;11.40;88.50;;;;;;10934188;32;20041;-73
2023/01/01 22:20:51;;;;;;;28.87;23.60;;;11.50;88.50;;;;;;10946747;32;20023;-73
2023/01/01 22:26:55;;;;;;;34.78;23.45;;;11.50;88.50;;;;;;10947149;32;20018;-74
2023/01/01 22:32:58;;;;;;;30.83;21.55;;;11.40;88.50;;;;;;10947134;32;20045;-73
2023/01/01 22:39:08;;;;;;;27.87;20.17;;;11.40;88.40;;;;;;10932961;32;20050;-74
2023/01/01 22:45:12;;;;;;;;;;;11.50;88.50;;;;;;10946848;32;20019;-73
2023/01/01 22:51:21;;;;;;;31.98;22.77;;;11.40;88.50;;;;;;10946967;32;19926;-74
2023/01/01 22:57:23;;;;;;;;;;;11.50;88.50;;;;;;10933050;32;20057;-74
2023/01/01 23:03:28;;;;;;;39.78;25.52;;;11.40;88.40;;;;;;10946095;32;19945;-74
2023/01/01 23:09:31;;;;;;;32.00;25.48;;;11.40;88.50;;;;;;10942022;32;20019;-74
2023/01/01 23:21:54;;;;;;;33.10;23.62;;;11.40;88.50;;;;;;10945701;32;20049;-73
2023/01/01 23:27:56;;;;;;;30.17;20.98;;;11.40;88.50;;;;;;10944331;32;20046;-73
2023/01/01 23:33:59;;;;;;;28.65;19.50;;;11.40;88.50;;;;;;10945007;32;20316;-73
2023/01/01 23:40:01;;;;;;;31.25;22.42;;;11.30;88.50;;;;;;10931216;32;20027;-73
2023/01/01 23:46:03;;;;;;;23.48;18.55;;;11.40;88.50;;;;;;10944539;32;20057;-73
2023/01/01 23:52:05;;;;;;;30.23;25.00;;;11.40;88.50;;;;;;10943771;32;20023;-73
2023/01/01 23:58:07;;;;;;;33.00;24.55;;;11.40;88.50;;;;;;10939971;32;20024;-73
